createdAt,value
2023-03-21T00:00:08.347Z,0.40
2023-03-21T00:02:41.297Z,0.40
2023-03-21T00:04:56.676Z,0.30
2023-03-21T00:07:11.420Z,0.50
2023-03-21T00:09:24.464Z,0.30
2023-03-21T00:11:37.273Z,0.30
2023-03-21T00:13:50.060Z,0.40
2023-03-21T00:16:15.756Z,0.40
2023-03-21T00:18:30.604Z,0.60
2023-03-21T00:20:43.258Z,0.60
2023-03-21T00:22:55.939Z,0.80
2023-03-21T00:25:09.357Z,3.70
2023-03-21T00:27:44.823Z,1.70
2023-03-21T00:29:55.950Z,0.80
2023-03-21T00:32:09.068Z,0.80
2023-03-21T00:34:31.743Z,0.40
2023-03-21T00:36:55.107Z,0.50
2023-03-21T00:39:08.048Z,0.30
2023-03-21T00:41:35.203Z,0.30
2023-03-21T00:43:56.493Z,0.30
2023-03-21T00:46:10.228Z,0.40
2023-03-21T00:48:23.935Z,0.40
2023-03-21T00:50:37.483Z,0.40
2023-03-21T00:52:51.354Z,0.50
2023-03-21T00:55:04.664Z,0.40
2023-03-21T00:57:18.821Z,0.30
2023-03-21T00:59:33.622Z,0.40
2023-03-21T01:01:47.765Z,0.50
2023-03-21T01:04:04.192Z,0.40
2023-03-21T01:06:20.384Z,0.30
2023-03-21T01:08:48.488Z,0.50
2023-03-21T01:11:09.019Z,0.40
2023-03-21T01:13:24.194Z,0.40
2023-03-21T01:15:37.566Z,0.50
2023-03-21T01:17:50.203Z,0.60
2023-03-21T01:20:02.959Z,0.40
2023-03-21T01:22:15.698Z,0.60
2023-03-21T01:24:28.405Z,0.60
2023-03-21T01:26:40.862Z,0.60
2023-03-21T01:28:54.459Z,0.60
2023-03-21T01:31:08.374Z,0.60
2023-03-21T01:33:23.291Z,0.50
2023-03-21T01:35:47.930Z,0.30
2023-03-21T01:38:03.206Z,0.80
2023-03-21T01:40:24.452Z,0.50
2023-03-21T01:42:42.411Z,0.60
2023-03-21T01:45:04.275Z,0.80
2023-03-21T01:47:27.845Z,0.70
2023-03-21T01:49:50.822Z,0.70
2023-03-21T01:52:36.988Z,0.70
2023-03-21T01:54:58.705Z,0.30
2023-03-21T01:57:19.890Z,0.50
2023-03-21T01:59:39.152Z,0.60
2023-03-21T02:01:52.313Z,0.60
2023-03-21T02:04:10.260Z,0.40
2023-03-21T02:06:41.902Z,0.50
2023-03-21T02:09:09.870Z,0.80
2023-03-21T02:11:23.316Z,0.60
2023-03-21T02:13:36.771Z,0.80
2023-03-21T02:16:00.640Z,0.50
2023-03-21T02:18:28.041Z,0.50
2023-03-21T02:21:14.346Z,0.50
2023-03-21T02:23:56.897Z,0.70
2023-03-21T02:26:43.928Z,0.60
2023-03-21T02:29:05.942Z,0.80
2023-03-21T02:31:43.872Z,0.60
2023-03-21T02:34:19.257Z,0.40
2023-03-21T02:36:51.553Z,0.80
2023-03-21T02:39:12.582Z,0.50
2023-03-21T02:41:38.301Z,0.60
2023-03-21T02:44:02.468Z,0.50
2023-03-21T02:46:24.362Z,0.50
2023-03-21T02:48:50.525Z,0.50
2023-03-21T02:51:08.870Z,0.60
2023-03-21T02:53:24.053Z,0.80
2023-03-21T02:55:40.635Z,0.60
2023-03-21T02:57:56.966Z,0.50
2023-03-21T03:00:17.166Z,0.60
2023-03-21T03:02:33.447Z,0.50
2023-03-21T03:04:47.116Z,0.40
2023-03-21T03:07:15.434Z,0.50
2023-03-21T03:09:42.737Z,0.60
2023-03-21T03:11:59.561Z,0.50
2023-03-21T03:14:56.138Z,0.60
2023-03-21T03:17:28.244Z,0.40
2023-03-21T03:19:50.509Z,0.60
2023-03-21T03:22:11.435Z,0.50
2023-03-21T03:24:30.459Z,0.80
2023-03-21T03:26:50.686Z,0.50
2023-03-21T03:29:09.698Z,0.40
2023-03-21T03:31:27.043Z,0.70
2023-03-21T03:33:49.288Z,0.80
2023-03-21T03:36:06.403Z,0.70
2023-03-21T03:38:24.479Z,0.50
2023-03-21T03:40:41.862Z,0.50
2023-03-21T03:43:13.458Z,0.40
2023-03-21T03:45:32.180Z,0.50
2023-03-21T03:47:56.822Z,0.50
2023-03-21T03:50:22.994Z,0.70
2023-03-21T03:52:50.113Z,0.60
2023-03-21T03:55:07.114Z,1.30
2023-03-21T03:57:23.356Z,0.70
2023-03-21T03:59:37.032Z,2.30
2023-03-21T04:02:12.979Z,0.70
2023-03-21T04:04:30.114Z,0.50
2023-03-21T04:06:44.009Z,0.60
2023-03-21T04:08:58.957Z,0.70
2023-03-21T04:11:16.703Z,0.50
2023-03-21T04:13:33.258Z,0.80
2023-03-21T04:15:55.811Z,1.20
2023-03-21T04:18:09.419Z,1.10
2023-03-21T04:20:35.602Z,1.90
2023-03-21T04:22:49.781Z,0.90
2023-03-21T04:25:02.915Z,0.50
2023-03-21T04:27:16.599Z,0.50
2023-03-21T04:29:46.055Z,0.70
2023-03-21T04:32:27.267Z,0.50
2023-03-21T04:34:51.157Z,0.40
2023-03-21T04:37:12.007Z,0.80
2023-03-21T04:39:27.009Z,0.70
2023-03-21T04:41:41.582Z,3.50
2023-03-21T04:43:54.540Z,0.60
2023-03-21T04:46:07.926Z,0.50
2023-03-21T04:52:14.941Z,1.00
2023-03-21T04:54:28.664Z,0.50
2023-03-21T04:56:43.839Z,0.70
2023-03-21T04:58:56.639Z,0.90
2023-03-21T05:01:09.923Z,1.10
2023-03-21T05:03:23.171Z,2.30
2023-03-21T05:05:36.228Z,0.80
2023-03-21T05:07:48.947Z,1.10
2023-03-21T05:10:02.796Z,1.10
2023-03-21T05:12:15.825Z,0.90
2023-03-21T05:14:30.722Z,0.80
2023-03-21T05:16:49.546Z,1.30
2023-03-21T05:19:05.267Z,1.20
2023-03-21T05:21:21.428Z,0.90
2023-03-21T05:23:39.371Z,0.50
2023-03-21T05:25:53.237Z,0.50
2023-03-21T05:28:24.219Z,0.70
2023-03-21T05:30:37.483Z,0.50
2023-03-21T05:32:51.010Z,0.60
2023-03-21T05:35:04.984Z,0.50
2023-03-21T05:37:18.692Z,0.60
2023-03-21T05:39:34.178Z,0.80
2023-03-21T05:41:55.041Z,0.60
2023-03-21T05:44:07.989Z,0.50
2023-03-21T05:46:22.103Z,0.60
2023-03-21T05:48:35.752Z,0.50
2023-03-21T05:50:59.450Z,0.60
2023-03-21T05:53:13.288Z,0.50
2023-03-21T05:55:28.553Z,0.60
2023-03-21T05:57:43.189Z,0.70
2023-03-21T06:00:05.343Z,0.90
2023-03-21T06:02:27.913Z,0.70
2023-03-21T06:04:41.363Z,0.90
2023-03-21T06:06:54.710Z,0.70
2023-03-21T06:09:08.372Z,0.50
2023-03-21T06:11:27.742Z,0.70
2023-03-21T06:14:03.343Z,0.60
2023-03-21T06:16:16.725Z,0.60
2023-03-21T06:18:29.811Z,0.70
2023-03-21T06:20:49.958Z,0.60
2023-03-21T06:23:04.028Z,0.70
2023-03-21T06:25:17.229Z,1.00
2023-03-21T06:27:30.635Z,0.90
2023-03-21T06:29:43.664Z,0.80
2023-03-21T06:31:56.908Z,0.60
2023-03-21T06:34:11.533Z,0.90
2023-03-21T06:36:24.784Z,0.90
2023-03-21T06:38:39.293Z,0.70
2023-03-21T06:40:53.662Z,0.90
2023-03-21T06:43:07.808Z,0.60
2023-03-21T06:45:21.646Z,0.60
2023-03-21T06:47:34.926Z,0.70
2023-03-21T06:49:48.515Z,0.90
2023-03-21T06:52:02.084Z,0.80
2023-03-21T06:54:15.664Z,1.00
2023-03-21T06:56:50.424Z,0.90
2023-03-21T06:59:09.554Z,0.80
2023-03-21T07:01:43.908Z,0.70
2023-03-21T07:03:57.775Z,0.90
2023-03-21T07:06:14.659Z,1.00
2023-03-21T07:08:28.021Z,0.90
2023-03-21T07:10:45.331Z,0.70
2023-03-21T07:12:59.129Z,0.60
2023-03-21T07:15:22.219Z,0.90
2023-03-21T07:17:37.331Z,0.80
2023-03-21T07:19:49.873Z,1.00
2023-03-21T07:22:03.307Z,0.90
2023-03-21T07:24:16.344Z,0.70
2023-03-21T07:26:29.428Z,0.70
2023-03-21T07:28:43.965Z,0.80
2023-03-21T07:31:02.128Z,0.80
2023-03-21T07:33:15.030Z,0.70
2023-03-21T07:35:28.121Z,0.80
2023-03-21T07:37:41.333Z,0.80
2023-03-21T07:39:54.333Z,1.00
2023-03-21T07:42:12.930Z,0.90
2023-03-21T07:44:26.318Z,0.70
2023-03-21T07:46:48.750Z,1.10
2023-03-21T07:49:02.765Z,0.80
2023-03-21T07:51:15.992Z,1.10
2023-03-21T07:53:29.326Z,1.00
2023-03-21T07:55:42.353Z,0.80
2023-03-21T07:57:57.434Z,1.10
2023-03-21T08:00:11.954Z,1.10
2023-03-21T08:02:28.558Z,0.90
2023-03-21T08:04:41.259Z,0.80
2023-03-21T08:06:55.224Z,1.40
2023-03-21T08:09:08.806Z,0.80
2023-03-21T08:11:22.545Z,1.40
2023-03-21T08:13:35.369Z,0.90
2023-03-21T08:15:48.092Z,0.70
2023-03-21T08:18:02.808Z,1.00
2023-03-21T08:20:19.615Z,1.00
2023-03-21T08:22:34.005Z,1.10
2023-03-21T08:24:47.188Z,1.30
2023-03-21T08:27:00.737Z,0.80
2023-03-21T08:29:13.577Z,0.80
2023-03-21T08:31:26.346Z,1.00
2023-03-21T08:33:39.286Z,0.70
2023-03-21T08:35:52.754Z,0.80
2023-03-21T08:38:08.031Z,1.00
2023-03-21T08:40:22.821Z,0.90
2023-03-21T08:42:35.763Z,1.00
2023-03-21T08:44:48.985Z,0.80
2023-03-21T08:47:01.854Z,1.20
2023-03-21T08:49:14.798Z,0.90
2023-03-21T08:51:28.480Z,1.10
2023-03-21T08:53:42.592Z,1.30
2023-03-21T08:55:55.711Z,1.40
2023-03-21T08:58:09.090Z,1.00
2023-03-21T09:00:24.577Z,0.80
2023-03-21T09:02:37.171Z,1.20
2023-03-21T09:04:50.557Z,1.30
2023-03-21T09:07:06.306Z,0.90
2023-03-21T09:09:19.320Z,1.00
2023-03-21T09:11:31.933Z,1.10
2023-03-21T09:13:44.776Z,1.10
2023-03-21T09:15:59.294Z,1.20
2023-03-21T09:18:16.773Z,1.30
2023-03-21T09:20:34.069Z,1.20
2023-03-21T09:22:48.687Z,1.20
2023-03-21T09:25:03.909Z,1.40
2023-03-21T09:27:17.321Z,1.00
2023-03-21T09:29:30.351Z,1.10
2023-03-21T09:31:44.533Z,1.10
2023-03-21T09:33:59.547Z,1.20
2023-03-21T09:36:15.170Z,0.90
2023-03-21T09:38:31.364Z,1.00
2023-03-21T09:41:07.298Z,1.00
2023-03-21T09:43:39.331Z,1.30
2023-03-21T09:46:01.033Z,1.00
2023-03-21T09:48:32.884Z,1.00
2023-03-21T09:50:47.937Z,0.90
2023-03-21T09:53:06.571Z,0.80
2023-03-21T09:55:24.583Z,1.00
2023-03-21T09:57:42.675Z,1.00
2023-03-21T09:59:58.129Z,1.10
2023-03-21T10:02:33.579Z,1.20
2023-03-21T10:04:47.481Z,0.90
2023-03-21T10:07:05.394Z,1.20
2023-03-21T10:09:24.618Z,0.90
2023-03-21T10:11:47.239Z,1.20
2023-03-21T10:14:03.641Z,1.00
2023-03-21T10:16:20.668Z,1.00
2023-03-21T10:18:36.265Z,1.20
2023-03-21T10:20:49.472Z,1.30
2023-03-21T10:23:06.510Z,1.40
2023-03-21T10:25:23.124Z,1.30
2023-03-21T10:27:37.498Z,1.00
2023-03-21T10:29:54.208Z,1.30
2023-03-21T10:32:11.996Z,1.00
2023-03-21T10:34:31.209Z,1.70
2023-03-21T10:36:45.334Z,0.90
2023-03-21T10:39:02.516Z,1.50
2023-03-21T10:41:17.039Z,1.10
2023-03-21T10:43:42.055Z,1.00
2023-03-21T10:45:56.779Z,1.20
2023-03-21T10:48:13.214Z,1.10
2023-03-21T10:50:32.865Z,0.90
2023-03-21T10:52:51.328Z,0.90
2023-03-21T10:55:20.631Z,1.10
2023-03-21T10:57:33.978Z,0.90
2023-03-21T10:59:52.518Z,1.40
2023-03-21T11:02:06.741Z,1.80
2023-03-21T11:04:23.335Z,1.70
2023-03-21T11:06:40.776Z,1.30
2023-03-21T11:08:59.206Z,1.30
2023-03-21T11:11:17.651Z,1.30
2023-03-21T11:13:36.831Z,1.00
2023-03-21T11:15:56.594Z,1.60
2023-03-21T11:18:21.911Z,1.10
2023-03-21T11:20:36.797Z,1.40
2023-03-21T11:22:51.461Z,1.00
2023-03-21T11:25:09.187Z,1.00
2023-03-21T11:27:22.374Z,1.30
2023-03-21T11:29:41.629Z,1.10
2023-03-21T11:31:55.125Z,1.30
2023-03-21T11:34:12.259Z,1.40
2023-03-21T11:36:42.020Z,1.40
2023-03-21T11:39:01.412Z,1.00
2023-03-21T11:41:25.488Z,1.30
2023-03-21T11:43:41.306Z,1.20
2023-03-21T11:46:09.350Z,1.30
2023-03-21T11:48:22.530Z,1.40
2023-03-21T11:50:39.006Z,1.10
2023-03-21T11:53:00.816Z,1.20
2023-03-21T11:55:49.355Z,1.10
2023-03-21T11:58:18.945Z,1.70
2023-03-21T12:00:37.985Z,2.10
2023-03-21T12:03:22.809Z,1.80
2023-03-21T12:05:39.794Z,1.80
2023-03-21T12:08:01.411Z,1.30
2023-03-21T12:10:37.397Z,1.60
2023-03-21T12:12:59.647Z,1.00
2023-03-21T12:15:19.955Z,1.20
2023-03-21T12:17:46.529Z,1.40
2023-03-21T12:20:17.411Z,1.10
2023-03-21T12:22:40.156Z,1.60
2023-03-21T12:24:57.961Z,1.60
2023-03-21T12:27:22.524Z,1.50
2023-03-21T12:29:49.569Z,1.80
2023-03-21T12:32:22.198Z,1.40
2023-03-21T12:34:56.891Z,1.60
2023-03-21T12:37:22.024Z,1.10
2023-03-21T12:39:38.597Z,1.50
2023-03-21T12:42:01.942Z,1.60
2023-03-21T12:44:18.588Z,1.80
2023-03-21T12:46:36.727Z,1.70
2023-03-21T12:48:53.460Z,2.00
2023-03-21T12:51:10.610Z,1.30
2023-03-21T12:53:37.306Z,1.50
2023-03-21T12:55:50.624Z,1.70
2023-03-21T12:58:08.093Z,1.70
2023-03-21T13:00:28.139Z,1.80
2023-03-21T13:02:45.563Z,1.60
2023-03-21T13:05:06.877Z,1.70
2023-03-21T13:07:26.313Z,1.90
2023-03-21T13:09:41.964Z,2.00
2023-03-21T13:11:59.238Z,1.90
2023-03-21T13:14:15.794Z,2.10
2023-03-21T13:16:33.398Z,1.60
2023-03-21T13:19:01.021Z,1.60
2023-03-21T13:21:19.588Z,1.90
2023-03-21T13:23:40.538Z,2.20
2023-03-21T13:25:56.349Z,1.90
2023-03-21T13:28:17.364Z,2.20
2023-03-21T13:30:33.640Z,2.00
2023-03-21T13:32:50.086Z,1.80
2023-03-21T13:35:05.898Z,2.00
2023-03-21T13:37:22.484Z,2.00
2023-03-21T13:39:35.742Z,2.90
2023-03-21T13:41:50.323Z,3.20
2023-03-21T13:44:23.171Z,3.50
2023-03-21T13:46:57.238Z,3.60
2023-03-21T13:49:29.598Z,4.30
2023-03-21T13:54:20.179Z,3.10
2023-03-21T13:56:51.437Z,4.70
2023-03-21T13:59:07.385Z,5.10
2023-03-21T14:01:40.964Z,6.70
2023-03-21T14:04:00.225Z,6.40
2023-03-21T14:06:15.137Z,6.00
2023-03-21T14:08:37.417Z,6.90
2023-03-21T14:10:55.760Z,6.30
2023-03-21T14:13:10.996Z,6.50
2023-03-21T14:15:26.194Z,6.20
2023-03-21T14:17:40.366Z,6.20
2023-03-21T14:19:58.806Z,5.70
2023-03-21T14:22:16.766Z,6.60
2023-03-21T14:24:29.547Z,6.60
2023-03-21T14:26:44.564Z,6.50
2023-03-21T14:28:58.050Z,4.80
2023-03-21T14:31:18.518Z,5.20
2023-03-21T14:33:34.683Z,5.90
2023-03-21T14:35:48.936Z,6.40
2023-03-21T14:38:03.162Z,6.00
2023-03-21T14:40:25.773Z,6.00
2023-03-21T14:42:42.883Z,5.60
2023-03-21T14:45:00.558Z,4.70
2023-03-21T14:47:20.874Z,4.40
2023-03-21T14:49:36.180Z,4.70
2023-03-21T14:51:49.765Z,4.90
2023-03-21T14:54:03.754Z,4.60
2023-03-21T14:56:26.560Z,4.30
2023-03-21T14:58:41.529Z,5.00
2023-03-21T15:00:58.377Z,4.50
2023-03-21T15:03:11.679Z,4.80
2023-03-21T15:05:29.001Z,4.20
2023-03-21T15:07:42.996Z,3.90
2023-03-21T15:10:01.899Z,6.50
2023-03-21T15:12:19.406Z,6.10
2023-03-21T15:14:35.562Z,5.60
2023-03-21T15:16:48.550Z,6.00
2023-03-21T15:19:03.007Z,5.60
2023-03-21T15:21:19.413Z,5.50
2023-03-21T15:23:37.062Z,5.40
2023-03-21T15:25:50.831Z,5.80
2023-03-21T15:28:05.350Z,5.80
2023-03-21T15:30:27.497Z,5.60
2023-03-21T15:32:42.267Z,4.50
2023-03-21T15:34:57.618Z,4.20
2023-03-21T15:37:11.889Z,3.30
2023-03-21T15:39:27.933Z,3.10
2023-03-21T15:41:40.722Z,3.00
2023-03-21T15:44:03.680Z,3.30
2023-03-21T15:46:34.895Z,3.10
2023-03-21T15:48:48.619Z,3.00
2023-03-21T15:51:05.238Z,2.00
2023-03-21T15:53:21.981Z,2.30
2023-03-21T15:55:49.505Z,2.20
2023-03-21T15:58:08.432Z,2.70
2023-03-21T16:00:30.808Z,2.20
2023-03-21T16:02:45.285Z,3.10
2023-03-21T16:05:19.076Z,2.50
2023-03-21T16:07:32.306Z,2.00
2023-03-21T16:09:50.225Z,2.50
2023-03-21T16:12:03.877Z,2.40
2023-03-21T16:14:18.722Z,2.60
2023-03-21T16:16:32.993Z,2.10
2023-03-21T16:18:46.655Z,2.60
2023-03-21T16:21:00.488Z,2.70
2023-03-21T16:23:16.065Z,2.60
2023-03-21T16:25:29.614Z,2.70
2023-03-21T16:27:42.967Z,3.30
2023-03-21T16:29:55.967Z,3.10
2023-03-21T16:32:10.530Z,2.90
2023-03-21T16:34:24.643Z,2.30
2023-03-21T16:36:39.258Z,2.20
2023-03-21T16:38:53.789Z,2.40
2023-03-21T16:41:07.216Z,1.90
2023-03-21T16:43:21.377Z,1.70
2023-03-21T16:45:34.594Z,2.00
2023-03-21T16:47:48.862Z,2.00
2023-03-21T16:50:01.648Z,2.20
2023-03-21T16:52:15.765Z,2.10
2023-03-21T16:54:28.324Z,2.10
2023-03-21T16:56:45.450Z,2.00
2023-03-21T16:59:01.134Z,2.30
2023-03-21T17:01:20.316Z,2.30
2023-03-21T17:03:35.457Z,2.50
2023-03-21T17:05:48.552Z,1.90
2023-03-21T17:08:03.249Z,1.90
2023-03-21T17:10:23.685Z,2.00
2023-03-21T17:12:36.233Z,2.00
2023-03-21T17:14:49.350Z,2.40
2023-03-21T17:17:01.973Z,2.20
2023-03-21T17:19:20.018Z,1.80
2023-03-21T17:21:33.838Z,2.10
2023-03-21T17:23:46.875Z,2.10
2023-03-21T17:26:00.272Z,1.80
2023-03-21T17:28:14.632Z,1.90
2023-03-21T17:30:32.497Z,1.50
2023-03-21T17:32:46.988Z,1.40
2023-03-21T17:35:00.318Z,1.50
2023-03-21T17:37:16.174Z,1.70
2023-03-21T17:39:31.218Z,1.50
2023-03-21T17:41:44.371Z,1.50
2023-03-21T17:43:57.037Z,1.50
2023-03-21T17:46:13.048Z,1.10
2023-03-21T17:48:26.193Z,1.20
2023-03-21T17:50:40.643Z,1.30
2023-03-21T17:52:54.273Z,1.40
2023-03-21T17:55:07.665Z,1.20
2023-03-21T17:57:20.366Z,1.10
2023-03-21T17:59:33.395Z,1.00
2023-03-21T18:01:46.547Z,1.20
2023-03-21T18:03:59.987Z,1.20
2023-03-21T18:06:19.052Z,1.20
2023-03-21T18:08:31.783Z,1.30
2023-03-21T18:10:44.932Z,1.20
2023-03-21T18:12:57.931Z,0.90
2023-03-21T18:15:14.536Z,1.00
2023-03-21T18:17:28.711Z,1.00
2023-03-21T18:19:41.279Z,0.80
2023-03-21T18:21:54.616Z,0.80
2023-03-21T18:24:09.345Z,0.90
2023-03-21T18:26:24.107Z,1.00
2023-03-21T18:28:39.954Z,0.80
2023-03-21T18:31:10.336Z,0.90
2023-03-21T18:33:26.329Z,0.90
2023-03-21T18:35:39.531Z,0.80
2023-03-21T18:37:52.592Z,0.90
2023-03-21T18:40:11.028Z,1.00
2023-03-21T18:42:23.719Z,0.90
2023-03-21T18:44:40.111Z,0.90
2023-03-21T18:46:53.757Z,0.80
2023-03-21T18:49:42.197Z,0.80
2023-03-21T18:51:39.586Z,0.90
2023-03-21T18:53:52.646Z,0.80
2023-03-21T18:56:09.939Z,0.90
2023-03-21T18:58:23.978Z,0.70
2023-03-21T19:00:36.905Z,1.00
2023-03-21T19:02:52.453Z,0.90
2023-03-21T19:05:07.611Z,1.00
2023-03-21T19:07:20.842Z,0.80
2023-03-21T19:09:57.829Z,1.40
2023-03-21T19:12:08.466Z,1.40
2023-03-21T19:14:22.132Z,1.50
2023-03-21T19:16:56.311Z,1.40
2023-03-21T19:19:07.986Z,1.50
2023-03-21T19:21:22.957Z,1.30
2023-03-21T19:24:03.815Z,1.80
2023-03-21T19:26:09.464Z,1.50
2023-03-21T19:28:22.604Z,1.60
2023-03-21T19:30:36.070Z,1.80
2023-03-21T19:32:49.238Z,1.10
2023-03-21T19:35:04.326Z,1.50
2023-03-21T19:37:19.348Z,0.90
2023-03-21T19:39:32.559Z,1.10
2023-03-21T19:41:45.557Z,0.80
2023-03-21T19:43:58.466Z,1.00
2023-03-21T19:46:15.586Z,0.70
2023-03-21T19:48:28.777Z,0.60
2023-03-21T19:51:00.500Z,0.70
2023-03-21T19:53:15.456Z,0.80
2023-03-21T19:55:28.776Z,0.80
2023-03-21T19:57:41.956Z,0.90
2023-03-21T19:59:56.018Z,0.70
2023-03-21T20:02:33.646Z,0.80
2023-03-21T20:04:42.010Z,0.90
2023-03-21T20:06:59.219Z,0.80
2023-03-21T20:11:44.709Z,0.80
2023-03-21T20:13:57.761Z,0.60
2023-03-21T20:16:12.109Z,0.60
2023-03-21T20:18:26.875Z,0.90
2023-03-21T20:20:40.265Z,0.60
2023-03-21T20:23:11.109Z,0.50
2023-03-21T20:25:24.981Z,0.60
2023-03-21T20:27:41.554Z,0.60
2023-03-21T20:30:10.729Z,0.40
2023-03-21T20:32:23.457Z,0.50
2023-03-21T20:34:37.017Z,0.50
2023-03-21T20:36:51.487Z,0.40
2023-03-21T20:39:04.956Z,0.40
2023-03-21T20:41:18.401Z,0.40
2023-03-21T20:46:09.050Z,0.50
2023-03-21T20:48:21.793Z,0.40
2023-03-21T20:50:39.152Z,0.60
2023-03-21T20:53:06.316Z,0.30
2023-03-21T20:55:19.754Z,0.30
2023-03-21T20:57:34.281Z,0.20
2023-03-21T20:59:47.974Z,0.20
2023-03-21T21:02:01.399Z,0.30
2023-03-21T21:04:20.211Z,0.40
2023-03-21T21:06:33.314Z,0.30
2023-03-21T21:08:47.379Z,0.30
2023-03-21T21:11:53.331Z,0.30
2023-03-21T21:13:33.558Z,0.20
2023-03-21T21:15:47.538Z,0.40
2023-03-21T21:18:08.404Z,0.40
2023-03-21T21:20:23.956Z,0.40
2023-03-21T21:22:38.814Z,0.30
2023-03-21T21:24:52.176Z,0.40
2023-03-21T21:27:04.916Z,0.40
2023-03-21T21:29:19.490Z,0.30
2023-03-21T21:31:35.634Z,0.20
2023-03-21T21:33:51.151Z,0.40
2023-03-21T21:36:04.168Z,0.40
2023-03-21T21:38:18.565Z,0.40
2023-03-21T21:40:31.652Z,0.40
2023-03-21T21:42:46.294Z,0.40
2023-03-21T21:45:00.236Z,0.40
2023-03-21T21:47:13.242Z,0.50
2023-03-21T21:49:26.383Z,0.30
2023-03-21T21:51:39.235Z,0.30
2023-03-21T21:53:52.014Z,0.60
2023-03-21T21:56:05.501Z,0.40
2023-03-21T21:58:22.054Z,0.30
2023-03-21T22:00:36.630Z,0.50
2023-03-21T22:02:49.891Z,0.50
2023-03-21T22:05:02.761Z,0.70
2023-03-21T22:07:15.889Z,0.40
2023-03-21T22:09:30.188Z,0.60
2023-03-21T22:11:43.068Z,0.60
2023-03-21T22:13:56.087Z,0.50
2023-03-21T22:16:09.057Z,0.60
2023-03-21T22:18:21.664Z,0.70
2023-03-21T22:20:34.887Z,0.90
2023-03-21T22:22:48.387Z,0.50
2023-03-21T22:25:01.005Z,0.60
2023-03-21T22:27:13.559Z,0.50
2023-03-21T22:29:26.729Z,0.60
2023-03-21T22:31:39.797Z,0.60
2023-03-21T22:33:52.836Z,0.60
2023-03-21T22:36:05.988Z,0.70
2023-03-21T22:38:19.062Z,0.50
2023-03-21T22:40:31.936Z,0.80
2023-03-21T22:42:45.752Z,0.50
2023-03-21T22:44:58.632Z,0.50
2023-03-21T22:47:13.971Z,0.60
2023-03-21T22:49:27.179Z,0.60
2023-03-21T22:51:40.113Z,0.40
2023-03-21T22:53:52.712Z,0.70
2023-03-21T22:56:05.274Z,0.60
2023-03-21T22:58:17.849Z,0.50
2023-03-21T23:00:31.026Z,0.60
2023-03-21T23:02:43.680Z,0.80
2023-03-21T23:04:56.976Z,0.60
2023-03-21T23:07:09.683Z,0.50
2023-03-21T23:09:22.398Z,0.50
2023-03-21T23:11:35.452Z,0.80
2023-03-21T23:13:58.741Z,0.50
2023-03-21T23:16:18.292Z,0.60
2023-03-21T23:18:33.335Z,0.50
2023-03-21T23:20:46.306Z,0.60
2023-03-21T23:22:59.664Z,0.60
2023-03-21T23:25:14.670Z,0.60
2023-03-21T23:27:27.243Z,0.60
2023-03-21T23:29:39.720Z,0.50
2023-03-21T23:31:52.885Z,1.30
2023-03-21T23:34:06.386Z,0.80
2023-03-21T23:36:20.925Z,0.80
2023-03-21T23:38:33.852Z,0.80
2023-03-21T23:40:47.088Z,0.70
2023-03-21T23:43:00.727Z,0.70
2023-03-21T23:45:15.505Z,1.00
2023-03-21T23:47:28.421Z,0.60
2023-03-21T23:49:45.943Z,0.70
2023-03-21T23:51:58.686Z,0.70
2023-03-21T23:54:11.389Z,0.80
2023-03-21T23:56:25.739Z,1.00
2023-03-21T23:58:38.614Z,0.80
